createdAt,value
2022-09-28T00:01:20.842Z,73.85
2022-09-28T00:03:50.448Z,73.94
2022-09-28T00:06:21.376Z,73.98
2022-09-28T00:08:52.149Z,74.00
2022-09-28T00:11:22.379Z,73.93
2022-09-28T00:13:52.329Z,73.96
2022-09-28T00:16:23.265Z,73.96
2022-09-28T00:18:52.266Z,74.06
2022-09-28T00:21:25.538Z,74.05
2022-09-28T00:24:15.688Z,74.01
2022-09-28T00:26:54.485Z,74.19
2022-09-28T00:29:33.466Z,74.17
2022-09-28T00:32:04.779Z,74.18
2022-09-28T00:34:36.117Z,74.38
2022-09-28T00:37:05.896Z,74.40
2022-09-28T00:39:36.113Z,74.41
2022-09-28T00:42:10.962Z,74.55
2022-09-28T00:44:58.227Z,74.54
2022-09-28T00:47:57.070Z,74.54
2022-09-28T00:50:26.353Z,74.55
2022-09-28T00:53:20.591Z,74.55
2022-09-28T00:55:52.496Z,74.58
2022-09-28T00:58:24.895Z,74.58
2022-09-28T01:00:56.342Z,74.55
2022-09-28T01:03:25.456Z,74.59
2022-09-28T01:05:54.045Z,74.54
2022-09-28T01:08:22.223Z,74.60
2022-09-28T01:10:51.352Z,74.57
2022-09-28T01:13:21.026Z,74.62
2022-09-28T01:15:55.274Z,74.54
2022-09-28T01:18:45.132Z,74.64
2022-09-28T01:21:17.398Z,74.62
2022-09-28T01:24:11.542Z,74.71
2022-09-28T01:26:49.139Z,74.66
2022-09-28T01:29:18.787Z,74.69
2022-09-28T01:31:51.633Z,74.71
2022-09-28T01:34:26.254Z,74.75
2022-09-28T01:36:56.597Z,74.76
2022-09-28T01:39:30.592Z,74.69
2022-09-28T01:42:06.066Z,74.73
2022-09-28T01:44:39.861Z,74.82
2022-09-28T01:47:11.437Z,74.74
2022-09-28T01:49:48.464Z,74.82
2022-09-28T01:52:21.834Z,74.80
2022-09-28T01:54:54.920Z,74.85
2022-09-28T01:57:34.234Z,74.85
2022-09-28T02:00:14.256Z,74.79
2022-09-28T02:03:05.076Z,74.81
2022-09-28T02:06:04.199Z,74.80
2022-09-28T02:08:35.420Z,74.73
2022-09-28T02:11:15.357Z,74.78
2022-09-28T02:13:53.914Z,74.93
2022-09-28T02:16:47.640Z,74.83
2022-09-28T02:19:19.921Z,74.92
2022-09-28T02:21:58.961Z,74.92
2022-09-28T02:24:37.284Z,75.01
2022-09-28T02:27:19.800Z,75.11
2022-09-28T02:29:48.849Z,75.01
2022-09-28T02:32:18.273Z,75.08
2022-09-28T02:34:46.054Z,75.03
2022-09-28T02:37:14.047Z,74.99
2022-09-28T02:39:41.864Z,75.08
2022-09-28T02:42:21.220Z,75.08
2022-09-28T02:45:13.533Z,75.07
2022-09-28T02:48:09.169Z,75.13
2022-09-28T02:50:43.244Z,75.10
2022-09-28T02:53:20.932Z,75.10
2022-09-28T02:55:48.613Z,75.17
2022-09-28T02:58:28.776Z,75.14
2022-09-28T03:01:21.922Z,75.08
2022-09-28T03:04:02.146Z,75.10
2022-09-28T03:06:33.220Z,75.12
2022-09-28T03:09:08.780Z,75.05
2022-09-28T03:11:42.074Z,75.18
2022-09-28T03:14:10.486Z,75.21
2022-09-28T03:16:46.143Z,75.24
2022-09-28T03:19:14.748Z,75.18
2022-09-28T03:21:42.478Z,75.29
2022-09-28T03:24:11.306Z,75.15
2022-09-28T03:26:41.522Z,75.22
2022-09-28T03:29:09.702Z,75.18
2022-09-28T03:31:39.022Z,75.26
2022-09-28T03:34:07.206Z,75.24
2022-09-28T03:36:35.423Z,75.20
2022-09-28T03:39:04.458Z,75.25
2022-09-28T03:41:32.320Z,75.29
2022-09-28T03:44:00.207Z,75.16
2022-09-28T03:46:28.902Z,75.28
2022-09-28T03:48:59.469Z,75.26
2022-09-28T03:51:30.081Z,75.18
2022-09-28T03:53:58.629Z,75.22
2022-09-28T03:56:27.041Z,75.21
2022-09-28T03:58:55.242Z,75.19
2022-09-28T04:01:23.006Z,75.16
2022-09-28T04:03:57.368Z,75.13
2022-09-28T04:06:26.398Z,75.14
2022-09-28T04:08:54.922Z,75.21
2022-09-28T04:11:24.200Z,75.23
2022-09-28T04:13:52.005Z,75.23
2022-09-28T04:16:20.305Z,75.28
2022-09-28T04:19:04.756Z,75.29
2022-09-28T04:21:32.625Z,75.20
2022-09-28T04:24:11.694Z,75.26
2022-09-28T04:26:39.457Z,75.17
2022-09-28T04:29:19.661Z,75.26
2022-09-28T04:31:52.393Z,75.20
2022-09-28T04:34:22.911Z,75.24
2022-09-28T04:36:51.274Z,75.19
2022-09-28T04:39:19.961Z,75.28
2022-09-28T04:41:51.206Z,75.34
2022-09-28T04:44:19.013Z,75.18
2022-09-28T04:46:48.327Z,75.37
2022-09-28T04:49:38.390Z,75.31
2022-09-28T04:52:17.220Z,75.27
2022-09-28T04:54:46.377Z,75.22
2022-09-28T04:57:14.072Z,75.26
2022-09-28T04:59:42.472Z,75.18
2022-09-28T05:02:10.922Z,75.26
2022-09-28T05:05:05.777Z,75.09
2022-09-28T05:07:36.879Z,75.26
2022-09-28T05:10:07.398Z,75.23
2022-09-28T05:12:35.810Z,75.21
2022-09-28T05:15:04.979Z,75.06
2022-09-28T05:17:32.851Z,75.14
2022-09-28T05:20:42.229Z,75.08
2022-09-28T05:23:13.637Z,75.04
2022-09-28T05:25:45.293Z,75.18
2022-09-28T05:28:25.038Z,75.19
2022-09-28T05:31:22.244Z,75.41
2022-09-28T05:34:10.159Z,75.25
2022-09-28T05:36:40.323Z,75.22
2022-09-28T05:39:09.800Z,75.17
2022-09-28T05:41:37.807Z,75.14
2022-09-28T05:44:06.317Z,75.02
2022-09-28T05:46:35.535Z,75.09
2022-09-28T05:49:03.576Z,75.09
2022-09-28T05:51:31.630Z,75.09
2022-09-28T05:54:03.270Z,74.97
2022-09-28T05:56:34.401Z,75.02
2022-09-28T05:59:06.189Z,74.87
2022-09-28T06:01:35.295Z,75.04
2022-09-28T06:04:04.824Z,74.86
2022-09-28T06:06:35.002Z,74.82
2022-09-28T06:09:02.861Z,74.84
2022-09-28T06:11:53.636Z,74.92
2022-09-28T06:14:31.111Z,74.70
2022-09-28T06:16:58.934Z,74.74
2022-09-28T06:19:27.133Z,74.86
2022-09-28T06:22:09.050Z,74.57
2022-09-28T06:24:50.402Z,74.57
2022-09-28T06:27:18.294Z,74.49
2022-09-28T06:29:46.201Z,74.32
2022-09-28T06:32:13.962Z,74.40
2022-09-28T06:34:44.039Z,74.62
2022-09-28T06:37:11.818Z,74.54
2022-09-28T06:39:39.711Z,74.52
2022-09-28T06:42:07.585Z,74.41
2022-09-28T06:45:04.692Z,74.41
2022-09-28T06:47:58.426Z,74.17
2022-09-28T06:50:38.047Z,74.21
2022-09-28T06:53:14.037Z,74.06
2022-09-28T06:56:16.889Z,74.13
2022-09-28T06:58:45.606Z,74.22
2022-09-28T07:01:13.566Z,74.02
2022-09-28T07:03:55.408Z,73.62
2022-09-28T07:06:56.331Z,73.75
2022-09-28T07:09:46.593Z,73.47
2022-09-28T07:12:51.729Z,73.47
2022-09-28T07:15:27.395Z,73.43
2022-09-28T07:18:02.591Z,73.08
2022-09-28T07:20:38.811Z,72.93
2022-09-28T07:23:18.955Z,72.98
2022-09-28T07:26:08.871Z,72.92
2022-09-28T07:29:06.625Z,74.09
2022-09-28T07:31:54.123Z,73.32
2022-09-28T07:34:44.527Z,72.49
2022-09-28T07:37:36.206Z,72.12
2022-09-28T07:40:24.133Z,72.03
2022-09-28T07:42:52.105Z,72.08
2022-09-28T07:45:20.855Z,72.04
2022-09-28T07:47:50.731Z,71.57
2022-09-28T07:50:37.124Z,71.57
2022-09-28T07:53:14.077Z,70.95
2022-09-28T07:56:17.314Z,70.80
2022-09-28T07:59:17.616Z,70.50
2022-09-28T08:02:03.868Z,70.38
2022-09-28T08:04:31.744Z,70.65
2022-09-28T08:07:00.383Z,70.92
2022-09-28T08:09:29.516Z,70.94
2022-09-28T08:12:33.007Z,70.54
2022-09-28T08:15:13.431Z,70.07
2022-09-28T08:17:49.582Z,69.99
2022-09-28T08:20:38.648Z,69.78
2022-09-28T08:23:08.689Z,69.70
2022-09-28T08:25:38.295Z,69.42
2022-09-28T08:28:07.417Z,69.27
2022-09-28T08:30:41.469Z,68.91
2022-09-28T08:33:27.473Z,68.17
2022-09-28T08:36:14.081Z,67.11
2022-09-28T08:39:05.258Z,67.11
2022-09-28T08:42:20.999Z,66.66
2022-09-28T08:45:12.781Z,65.64
2022-09-28T08:48:30.403Z,65.02
2022-09-28T08:51:26.823Z,64.25
2022-09-28T08:54:18.791Z,62.03
2022-09-28T08:57:08.251Z,60.72
2022-09-28T08:59:44.072Z,60.10
2022-09-28T09:02:23.497Z,58.92
2022-09-28T09:04:53.455Z,57.78
2022-09-28T09:07:49.278Z,56.04
2022-09-28T09:10:55.312Z,54.52
2022-09-28T09:14:06.839Z,51.36
2022-09-28T09:17:13.378Z,48.39
2022-09-28T09:20:03.460Z,43.96
2022-09-28T09:23:00.271Z,41.76
2022-09-28T09:25:38.886Z,39.40
2022-09-28T09:28:57.723Z,36.90
2022-09-28T09:31:51.486Z,35.50
2022-09-28T09:34:35.443Z,34.68
2022-09-28T09:37:41.187Z,34.02
2022-09-28T09:40:34.191Z,32.50
2022-09-28T09:43:59.992Z,31.64
2022-09-28T09:46:58.446Z,31.17
2022-09-28T09:50:30.811Z,30.50
2022-09-28T09:53:34.835Z,30.77
2022-09-28T09:56:14.982Z,31.08
2022-09-28T09:59:07.962Z,31.68
2022-09-28T10:01:41.542Z,31.86
2022-09-28T10:04:23.609Z,32.41
2022-09-28T10:06:58.215Z,32.74
2022-09-28T10:09:53.724Z,33.01
2022-09-28T10:12:49.785Z,33.09
2022-09-28T10:15:30.213Z,32.42
2022-09-28T10:18:11.979Z,31.59
2022-09-28T10:21:07.162Z,29.63
2022-09-28T10:23:52.515Z,29.30
2022-09-28T10:26:25.373Z,29.59
2022-09-28T10:29:05.781Z,29.57
2022-09-28T10:31:44.608Z,29.74
2022-09-28T10:34:30.330Z,29.85
2022-09-28T10:37:04.553Z,30.22
2022-09-28T10:39:47.550Z,30.31
2022-09-28T10:42:20.941Z,30.92
2022-09-28T10:44:55.518Z,31.77
2022-09-28T10:47:35.598Z,31.27
2022-09-28T10:50:28.125Z,31.63
2022-09-28T10:53:20.634Z,31.07
2022-09-28T10:56:12.765Z,31.13
2022-09-28T10:58:42.683Z,30.69
2022-09-28T11:01:18.679Z,30.16
2022-09-28T11:03:58.609Z,30.81
2022-09-28T11:06:38.116Z,30.34
2022-09-28T11:09:30.574Z,30.36
2022-09-28T11:12:03.835Z,30.82
2022-09-28T11:14:42.626Z,30.57
2022-09-28T11:17:38.820Z,31.20
2022-09-28T11:20:27.758Z,31.76
2022-09-28T11:22:57.852Z,32.41
2022-09-28T11:25:29.613Z,32.51
2022-09-28T11:28:00.522Z,33.14
2022-09-28T11:30:35.070Z,33.31
2022-09-28T11:33:38.922Z,33.89
2022-09-28T11:36:46.610Z,34.58
2022-09-28T11:39:32.311Z,34.90
2022-09-28T11:42:16.063Z,35.31
2022-09-28T11:44:49.178Z,35.56
2022-09-28T11:47:40.063Z,36.08
2022-09-28T11:50:41.172Z,36.40
2022-09-28T11:53:22.523Z,36.97
2022-09-28T11:56:19.362Z,37.08
2022-09-28T11:58:53.861Z,36.84
2022-09-28T12:01:44.050Z,36.77
2022-09-28T12:04:28.647Z,37.07
2022-09-28T12:07:01.750Z,37.21
2022-09-28T12:09:36.177Z,36.41
2022-09-28T12:12:40.378Z,37.08
2022-09-28T12:15:19.751Z,37.06
2022-09-28T12:18:14.233Z,37.09
2022-09-28T12:20:46.086Z,37.56
2022-09-28T12:23:19.167Z,38.18
2022-09-28T12:25:52.170Z,38.45
2022-09-28T12:28:42.422Z,39.01
2022-09-28T12:31:17.365Z,39.27
2022-09-28T12:33:48.259Z,39.71
2022-09-28T12:36:20.197Z,39.81
2022-09-28T12:39:08.758Z,40.26
2022-09-28T12:41:42.443Z,39.86
2022-09-28T12:44:49.279Z,40.17
2022-09-28T12:47:44.199Z,40.52
2022-09-28T12:50:42.694Z,40.51
2022-09-28T12:53:26.855Z,40.61
2022-09-28T12:56:21.542Z,40.75
2022-09-28T12:59:20.909Z,40.96
2022-09-28T13:02:02.363Z,41.39
2022-09-28T13:04:56.329Z,41.28
2022-09-28T13:07:37.137Z,41.56
2022-09-28T13:10:32.558Z,41.64
2022-09-28T13:13:19.033Z,41.89
2022-09-28T13:15:54.291Z,41.89
2022-09-28T13:18:24.463Z,42.13
2022-09-28T13:20:54.921Z,42.31
2022-09-28T13:23:25.394Z,42.62
2022-09-28T13:26:14.916Z,42.81
2022-09-28T13:28:43.644Z,43.00
2022-09-28T13:31:13.046Z,43.19
2022-09-28T13:33:43.949Z,43.41
2022-09-28T13:36:33.077Z,43.62
2022-09-28T13:39:01.200Z,43.74
2022-09-28T13:41:33.058Z,43.96
2022-09-28T13:44:13.123Z,43.89
2022-09-28T13:46:50.062Z,44.00
2022-09-28T13:49:35.154Z,44.24
2022-09-28T13:52:13.460Z,44.58
2022-09-28T13:55:06.068Z,44.41
2022-09-28T13:57:50.970Z,44.35
2022-09-28T14:00:30.779Z,44.49
2022-09-28T14:03:04.118Z,44.44
2022-09-28T14:05:47.350Z,44.66
2022-09-28T14:08:24.021Z,44.62
2022-09-28T14:10:57.440Z,44.76
2022-09-28T14:13:43.607Z,44.82
2022-09-28T14:16:23.963Z,44.89
2022-09-28T14:18:59.169Z,45.10
2022-09-28T14:21:29.675Z,45.22
2022-09-28T14:24:00.303Z,45.20
2022-09-28T14:26:49.858Z,45.32
2022-09-28T14:29:29.388Z,45.67
2022-09-28T14:32:09.275Z,45.47
2022-09-28T14:34:48.667Z,45.52
2022-09-28T14:37:37.173Z,45.82
2022-09-28T14:40:35.825Z,45.96
2022-09-28T14:43:24.586Z,46.06
2022-09-28T14:46:25.693Z,46.07
2022-09-28T14:49:03.868Z,46.28
2022-09-28T14:51:33.929Z,46.24
2022-09-28T14:54:10.614Z,46.41
2022-09-28T14:56:59.976Z,46.37
2022-09-28T14:59:36.200Z,46.27
2022-09-28T15:02:20.025Z,46.58
2022-09-28T15:04:54.730Z,46.47
2022-09-28T15:07:25.027Z,46.66
2022-09-28T15:09:56.273Z,46.84
2022-09-28T15:12:31.298Z,46.95
2022-09-28T15:15:02.465Z,47.12
2022-09-28T15:17:39.484Z,47.21
2022-09-28T15:20:30.673Z,47.08
2022-09-28T15:22:59.640Z,47.32
2022-09-28T15:25:29.604Z,47.33
2022-09-28T15:28:03.454Z,47.44
2022-09-28T15:30:36.727Z,47.36
2022-09-28T15:33:23.643Z,47.70
2022-09-28T15:35:51.336Z,47.92
2022-09-28T15:38:19.173Z,48.08
2022-09-28T15:40:47.787Z,48.22
2022-09-28T15:43:29.133Z,48.34
2022-09-28T15:46:05.154Z,48.47
2022-09-28T15:48:51.794Z,48.58
2022-09-28T15:51:21.338Z,48.85
2022-09-28T15:54:13.048Z,48.90
2022-09-28T15:56:52.833Z,49.14
2022-09-28T15:59:32.027Z,49.44
2022-09-28T16:02:24.205Z,49.47
2022-09-28T16:04:58.779Z,49.56
2022-09-28T16:07:38.707Z,49.77
2022-09-28T16:10:12.939Z,49.92
2022-09-28T16:12:50.254Z,50.10
2022-09-28T16:15:20.568Z,50.21
2022-09-28T16:18:00.557Z,50.37
2022-09-28T16:20:37.993Z,50.33
2022-09-28T16:23:15.489Z,50.46
2022-09-28T16:25:49.459Z,50.72
2022-09-28T16:28:34.591Z,50.87
2022-09-28T16:31:07.714Z,51.08
2022-09-28T16:33:40.566Z,51.18
2022-09-28T16:36:12.712Z,51.30
2022-09-28T16:38:44.585Z,51.45
2022-09-28T16:41:13.902Z,51.46
2022-09-28T16:43:41.669Z,51.69
2022-09-28T16:46:13.265Z,51.83
2022-09-28T16:48:48.550Z,52.00
2022-09-28T16:51:21.031Z,51.87
2022-09-28T16:54:08.412Z,52.16
2022-09-28T16:56:36.763Z,52.19
2022-09-28T16:59:04.854Z,52.28
2022-09-28T17:01:32.957Z,52.48
2022-09-28T17:04:01.170Z,52.33
2022-09-28T17:06:29.151Z,52.63
2022-09-28T17:08:59.169Z,52.86
2022-09-28T17:11:27.050Z,53.04
2022-09-28T17:13:59.029Z,52.95
2022-09-28T17:17:06.147Z,53.01
2022-09-28T17:19:28.823Z,53.06
2022-09-28T17:21:56.631Z,53.25
2022-09-28T17:24:24.488Z,53.40
2022-09-28T17:26:52.350Z,53.47
2022-09-28T17:29:20.368Z,53.85
2022-09-28T17:31:48.149Z,54.13
2022-09-28T17:34:16.980Z,54.37
2022-09-28T17:36:45.007Z,54.44
2022-09-28T17:39:15.052Z,54.64
2022-09-28T17:41:42.970Z,54.96
2022-09-28T17:44:11.994Z,55.13
2022-09-28T17:46:48.961Z,55.24
2022-09-28T17:49:17.183Z,55.43
2022-09-28T17:51:45.507Z,55.56
2022-09-28T17:54:13.699Z,55.80
2022-09-28T17:56:42.619Z,55.96
2022-09-28T17:59:13.410Z,56.17
2022-09-28T18:01:41.203Z,56.25
2022-09-28T18:04:27.649Z,56.63
2022-09-28T18:07:00.102Z,56.72
2022-09-28T18:09:28.011Z,56.76
2022-09-28T18:12:02.859Z,56.92
2022-09-28T18:14:30.805Z,57.09
2022-09-28T18:16:58.459Z,57.24
2022-09-28T18:19:31.787Z,57.46
2022-09-28T18:22:01.599Z,57.67
2022-09-28T18:24:29.852Z,57.65
2022-09-28T18:26:57.612Z,57.83
2022-09-28T18:29:28.012Z,57.97
2022-09-28T18:31:57.827Z,58.10
2022-09-28T18:34:25.739Z,58.24
2022-09-28T18:36:53.572Z,58.26
2022-09-28T18:39:21.439Z,58.48
2022-09-28T18:41:49.180Z,58.43
2022-09-28T18:44:16.909Z,58.73
2022-09-28T18:46:44.829Z,58.77
2022-09-28T18:49:12.594Z,58.89
2022-09-28T18:51:40.363Z,59.06
2022-09-28T18:54:08.209Z,59.03
2022-09-28T18:56:37.966Z,59.02
2022-09-28T18:59:12.295Z,59.22
2022-09-28T19:01:41.977Z,59.32
2022-09-28T19:04:10.587Z,59.49
2022-09-28T19:06:42.815Z,59.74
2022-09-28T19:09:11.287Z,59.84
2022-09-28T19:11:38.958Z,59.84
2022-09-28T19:14:06.677Z,59.93
2022-09-28T19:16:34.578Z,60.01
2022-09-28T19:19:03.213Z,60.07
2022-09-28T19:21:31.599Z,60.18
2022-09-28T19:24:03.236Z,60.44
2022-09-28T19:26:32.864Z,60.70
2022-09-28T19:29:02.820Z,60.72
2022-09-28T19:31:31.710Z,60.89
2022-09-28T19:33:59.791Z,60.98
2022-09-28T19:36:28.598Z,61.06
2022-09-28T19:38:58.135Z,61.08
2022-09-28T19:41:51.121Z,61.20
2022-09-28T19:44:25.150Z,61.37
2022-09-28T19:46:58.941Z,61.48
2022-09-28T19:49:27.828Z,61.53
2022-09-28T19:52:12.312Z,61.56
2022-09-28T19:54:44.571Z,61.71
2022-09-28T19:57:14.415Z,61.72
2022-09-28T19:59:42.095Z,61.84
2022-09-28T20:02:10.801Z,61.90
2022-09-28T20:04:38.838Z,62.05
2022-09-28T20:07:06.529Z,62.07
2022-09-28T20:09:34.251Z,62.13
2022-09-28T20:12:01.978Z,62.26
2022-09-28T20:14:34.263Z,62.31
2022-09-28T20:17:06.084Z,62.44
2022-09-28T20:19:35.011Z,62.42
2022-09-28T20:22:03.256Z,62.55
2022-09-28T20:24:32.264Z,62.58
2022-09-28T20:27:01.333Z,62.68
2022-09-28T20:29:31.868Z,62.71
2022-09-28T20:32:00.416Z,62.88
2022-09-28T20:34:28.106Z,62.90
2022-09-28T20:36:55.773Z,63.02
2022-09-28T20:39:23.490Z,63.06
2022-09-28T20:41:51.787Z,63.05
2022-09-28T20:44:20.108Z,63.20
2022-09-28T20:46:51.800Z,63.27
2022-09-28T20:49:19.464Z,63.44
2022-09-28T20:51:47.162Z,63.51
2022-09-28T20:54:15.201Z,63.63
2022-09-28T20:56:43.178Z,63.66
2022-09-28T20:59:12.306Z,63.74
2022-09-28T21:01:40.395Z,63.90
2022-09-28T21:04:09.457Z,63.94
2022-09-28T21:06:39.634Z,64.00
2022-09-28T21:09:08.627Z,64.16
2022-09-28T21:11:36.537Z,64.14
2022-09-28T21:14:06.341Z,64.27
2022-09-28T21:16:35.148Z,64.29
2022-09-28T21:19:03.748Z,64.35
2022-09-28T21:21:32.133Z,64.35
2022-09-28T21:23:59.979Z,64.34
2022-09-28T21:26:29.043Z,64.48
2022-09-28T21:29:07.885Z,64.42
2022-09-28T21:31:40.700Z,64.42
2022-09-28T21:34:13.389Z,64.62
2022-09-28T21:36:43.300Z,64.66
2022-09-28T21:39:10.957Z,64.72
2022-09-28T21:41:39.203Z,64.76
2022-09-28T21:44:07.364Z,65.01
2022-09-28T21:46:36.506Z,65.15
2022-09-28T21:49:07.515Z,65.17
2022-09-28T21:51:36.039Z,65.27
2022-09-28T21:54:03.913Z,65.39
2022-09-28T21:56:31.736Z,65.60
2022-09-28T21:59:01.207Z,65.56
2022-09-28T22:01:29.101Z,65.55
2022-09-28T22:03:57.475Z,65.64
2022-09-28T22:06:29.772Z,65.77
2022-09-28T22:08:58.163Z,65.99
2022-09-28T22:11:27.600Z,66.05
2022-09-28T22:13:58.730Z,66.05
2022-09-28T22:16:29.369Z,66.21
2022-09-28T22:18:58.795Z,66.08
2022-09-28T22:21:29.480Z,66.32
2022-09-28T22:24:05.595Z,66.43
2022-09-28T22:26:35.536Z,66.43
2022-09-28T22:29:08.442Z,66.58
2022-09-28T22:31:38.708Z,66.53
2022-09-28T22:34:08.602Z,66.67
2022-09-28T22:36:36.728Z,66.67
2022-09-28T22:39:04.656Z,66.70
2022-09-28T22:41:32.921Z,66.74
2022-09-28T22:44:01.401Z,66.81
2022-09-28T22:46:31.942Z,66.76
2022-09-28T22:49:00.003Z,66.94
2022-09-28T22:51:29.483Z,66.93
2022-09-28T22:53:57.378Z,67.02
2022-09-28T22:56:25.691Z,67.10
2022-09-28T22:58:53.723Z,67.13
2022-09-28T23:01:23.697Z,67.23
2022-09-28T23:03:52.444Z,67.06
2022-09-28T23:06:21.893Z,66.90
2022-09-28T23:08:50.815Z,67.07
2022-09-28T23:11:19.461Z,67.21
2022-09-28T23:13:55.607Z,67.24
2022-09-28T23:16:25.695Z,67.37
2022-09-28T23:18:55.110Z,67.48
2022-09-28T23:21:25.944Z,67.29
2022-09-28T23:23:56.374Z,67.45
2022-09-28T23:26:26.941Z,67.39
2022-09-28T23:28:55.426Z,67.60
2022-09-28T23:31:26.335Z,67.53
2022-09-28T23:33:58.946Z,67.72
2022-09-28T23:36:27.205Z,67.76
2022-09-28T23:38:55.484Z,67.86
2022-09-28T23:41:23.522Z,67.79
2022-09-28T23:43:51.355Z,68.10
2022-09-28T23:46:21.241Z,68.06
2022-09-28T23:48:50.517Z,68.13
2022-09-28T23:51:18.269Z,68.30
2022-09-28T23:53:47.023Z,68.34
2022-09-28T23:56:15.446Z,68.33
2022-09-28T23:58:43.125Z,68.35
